sensor_id;sensor_type;location;lat;lon;timestamp;P1;durP1;ratioP1;P2;durP2;ratioP2
45328;SDS011;72636;48.160;11.428;2024-01-30T00:01:19;20.85;;;11.98;;
45328;SDS011;72636;48.160;11.428;2024-01-30T00:03:45;22.05;;;12.57;;
45328;SDS011;72636;48.160;11.428;2024-01-30T00:06:11;22.70;;;12.68;;
45328;SDS011;72636;48.160;11.428;2024-01-30T00:08:37;19.80;;;12.60;;
45328;SDS011;72636;48.160;11.428;2024-01-30T00:11:02;25.17;;;12.77;;
45328;SDS011;72636;48.160;11.428;2024-01-30T00:13:28;19.25;;;11.80;;
45328;SDS011;72636;48.160;11.428;2024-01-30T00:15:54;23.67;;;12.30;;
45328;SDS011;72636;48.160;11.428;2024-01-30T00:18:20;25.02;;;12.65;;
45328;SDS011;72636;48.160;11.428;2024-01-30T00:23:12;19.52;;;11.68;;
45328;SDS011;72636;48.160;11.428;2024-01-30T00:25:38;19.83;;;12.20;;
45328;SDS011;72636;48.160;11.428;2024-01-30T00:28:04;22.35;;;12.82;;
45328;SDS011;72636;48.160;11.428;2024-01-30T00:30:30;23.77;;;13.60;;
45328;SDS011;72636;48.160;11.428;2024-01-30T00:32:56;21.48;;;12.73;;
45328;SDS011;72636;48.160;11.428;2024-01-30T00:35:22;22.05;;;12.73;;
45328;SDS011;72636;48.160;11.428;2024-01-30T00:37:48;22.42;;;12.93;;
45328;SDS011;72636;48.160;11.428;2024-01-30T00:40:15;23.63;;;13.03;;
45328;SDS011;72636;48.160;11.428;2024-01-30T00:42:43;24.13;;;13.02;;
45328;SDS011;72636;48.160;11.428;2024-01-30T00:45:13;23.13;;;13.20;;
45328;SDS011;72636;48.160;11.428;2024-01-30T00:47:40;24.63;;;13.32;;
45328;SDS011;72636;48.160;11.428;2024-01-30T00:50:07;23.75;;;12.60;;
45328;SDS011;72636;48.160;11.428;2024-01-30T00:52:34;23.80;;;13.50;;
45328;SDS011;72636;48.160;11.428;2024-01-30T00:55:00;20.63;;;12.50;;
45328;SDS011;72636;48.160;11.428;2024-01-30T00:57:26;24.65;;;13.18;;
45328;SDS011;72636;48.160;11.428;2024-01-30T00:59:52;24.15;;;12.43;;
45328;SDS011;72636;48.160;11.428;2024-01-30T01:02:18;22.50;;;13.18;;
45328;SDS011;72636;48.160;11.428;2024-01-30T01:04:44;20.60;;;12.38;;
45328;SDS011;72636;48.160;11.428;2024-01-30T01:07:10;21.92;;;12.68;;
45328;SDS011;72636;48.160;11.428;2024-01-30T01:09:36;24.67;;;11.95;;
45328;SDS011;72636;48.160;11.428;2024-01-30T01:12:02;21.58;;;13.05;;
45328;SDS011;72636;48.160;11.428;2024-01-30T01:14:29;21.53;;;12.53;;
45328;SDS011;72636;48.160;11.428;2024-01-30T01:16:55;21.23;;;12.13;;
45328;SDS011;72636;48.160;11.428;2024-01-30T01:19:21;20.92;;;12.73;;
45328;SDS011;72636;48.160;11.428;2024-01-30T01:21:47;19.23;;;12.07;;
45328;SDS011;72636;48.160;11.428;2024-01-30T01:24:14;22.13;;;11.90;;
45328;SDS011;72636;48.160;11.428;2024-01-30T01:26:40;21.60;;;11.93;;
45328;SDS011;72636;48.160;11.428;2024-01-30T01:29:06;22.80;;;11.77;;
45328;SDS011;72636;48.160;11.428;2024-01-30T01:31:36;20.50;;;11.80;;
45328;SDS011;72636;48.160;11.428;2024-01-30T01:34:09;19.87;;;12.03;;
45328;SDS011;72636;48.160;11.428;2024-01-30T01:36:35;22.10;;;12.17;;
45328;SDS011;72636;48.160;11.428;2024-01-30T01:39:01;19.08;;;10.50;;
45328;SDS011;72636;48.160;11.428;2024-01-30T01:43:57;20.37;;;10.90;;
45328;SDS011;72636;48.160;11.428;2024-01-30T01:46:23;26.02;;;11.43;;
45328;SDS011;72636;48.160;11.428;2024-01-30T01:48:51;18.30;;;10.90;;
45328;SDS011;72636;48.160;11.428;2024-01-30T01:51:17;19.27;;;10.63;;
45328;SDS011;72636;48.160;11.428;2024-01-30T01:53:43;16.33;;;10.13;;
45328;SDS011;72636;48.160;11.428;2024-01-30T01:56:10;19.43;;;10.63;;
45328;SDS011;72636;48.160;11.428;2024-01-30T01:58:36;18.38;;;11.07;;
45328;SDS011;72636;48.160;11.428;2024-01-30T02:01:02;20.15;;;11.77;;
45328;SDS011;72636;48.160;11.428;2024-01-30T02:03:30;18.47;;;11.37;;
45328;SDS011;72636;48.160;11.428;2024-01-30T02:05:55;17.42;;;10.15;;
45328;SDS011;72636;48.160;11.428;2024-01-30T02:08:22;17.48;;;10.48;;
45328;SDS011;72636;48.160;11.428;2024-01-30T02:10:49;22.07;;;11.77;;
45328;SDS011;72636;48.160;11.428;2024-01-30T02:13:15;16.35;;;9.93;;
45328;SDS011;72636;48.160;11.428;2024-01-30T02:15:40;18.15;;;10.77;;
45328;SDS011;72636;48.160;11.428;2024-01-30T02:18:06;19.55;;;10.75;;
45328;SDS011;72636;48.160;11.428;2024-01-30T02:20:32;20.37;;;10.80;;
45328;SDS011;72636;48.160;11.428;2024-01-30T02:23:00;18.75;;;10.43;;
45328;SDS011;72636;48.160;11.428;2024-01-30T02:25:34;19.38;;;10.57;;
45328;SDS011;72636;48.160;11.428;2024-01-30T02:28:11;17.13;;;10.23;;
45328;SDS011;72636;48.160;11.428;2024-01-30T02:30:38;16.90;;;9.48;;
45328;SDS011;72636;48.160;11.428;2024-01-30T02:33:08;17.27;;;9.87;;
45328;SDS011;72636;48.160;11.428;2024-01-30T02:35:34;18.43;;;10.17;;
45328;SDS011;72636;48.160;11.428;2024-01-30T02:38:00;18.05;;;10.52;;
45328;SDS011;72636;48.160;11.428;2024-01-30T02:40:26;17.20;;;10.18;;
45328;SDS011;72636;48.160;11.428;2024-01-30T02:42:52;16.15;;;10.27;;
45328;SDS011;72636;48.160;11.428;2024-01-30T02:45:17;16.83;;;9.85;;
45328;SDS011;72636;48.160;11.428;2024-01-30T02:47:43;14.80;;;9.05;;
45328;SDS011;72636;48.160;11.428;2024-01-30T02:50:09;16.33;;;9.75;;
45328;SDS011;72636;48.160;11.428;2024-01-30T02:52:35;16.85;;;9.00;;
45328;SDS011;72636;48.160;11.428;2024-01-30T02:55:01;17.20;;;9.63;;
45328;SDS011;72636;48.160;11.428;2024-01-30T02:57:27;15.82;;;9.27;;
45328;SDS011;72636;48.160;11.428;2024-01-30T02:59:53;12.63;;;8.10;;
45328;SDS011;72636;48.160;11.428;2024-01-30T03:02:19;16.67;;;8.50;;
45328;SDS011;72636;48.160;11.428;2024-01-30T03:04:46;14.57;;;8.15;;
45328;SDS011;72636;48.160;11.428;2024-01-30T03:07:12;17.73;;;8.83;;
45328;SDS011;72636;48.160;11.428;2024-01-30T03:09:38;13.00;;;8.02;;
45328;SDS011;72636;48.160;11.428;2024-01-30T03:12:04;12.02;;;7.80;;
45328;SDS011;72636;48.160;11.428;2024-01-30T03:16:56;14.17;;;7.33;;
45328;SDS011;72636;48.160;11.428;2024-01-30T03:19:22;11.52;;;7.05;;
45328;SDS011;72636;48.160;11.428;2024-01-30T03:21:47;13.70;;;6.90;;
45328;SDS011;72636;48.160;11.428;2024-01-30T03:24:13;15.57;;;7.70;;
45328;SDS011;72636;48.160;11.428;2024-01-30T03:26:38;11.40;;;7.13;;
45328;SDS011;72636;48.160;11.428;2024-01-30T03:29:04;12.02;;;7.72;;
45328;SDS011;72636;48.160;11.428;2024-01-30T03:31:30;14.37;;;7.23;;
45328;SDS011;72636;48.160;11.428;2024-01-30T03:33:55;11.50;;;7.30;;
45328;SDS011;72636;48.160;11.428;2024-01-30T03:36:21;11.68;;;7.03;;
45328;SDS011;72636;48.160;11.428;2024-01-30T03:38:46;15.70;;;7.28;;
45328;SDS011;72636;48.160;11.428;2024-01-30T03:41:12;10.68;;;6.55;;
45328;SDS011;72636;48.160;11.428;2024-01-30T03:43:38;13.77;;;7.55;;
45328;SDS011;72636;48.160;11.428;2024-01-30T03:46:03;12.57;;;6.93;;
45328;SDS011;72636;48.160;11.428;2024-01-30T03:48:29;11.25;;;7.40;;
45328;SDS011;72636;48.160;11.428;2024-01-30T03:50:55;9.40;;;6.47;;
45328;SDS011;72636;48.160;11.428;2024-01-30T03:53:21;10.88;;;6.93;;
45328;SDS011;72636;48.160;11.428;2024-01-30T03:55:47;11.20;;;7.60;;
45328;SDS011;72636;48.160;11.428;2024-01-30T03:58:13;10.40;;;7.05;;
45328;SDS011;72636;48.160;11.428;2024-01-30T04:00:38;13.90;;;7.83;;
45328;SDS011;72636;48.160;11.428;2024-01-30T04:03:05;13.03;;;7.40;;
45328;SDS011;72636;48.160;11.428;2024-01-30T04:05:31;11.35;;;7.25;;
45328;SDS011;72636;48.160;11.428;2024-01-30T04:07:58;12.67;;;7.43;;
45328;SDS011;72636;48.160;11.428;2024-01-30T04:10:24;11.73;;;6.90;;
45328;SDS011;72636;48.160;11.428;2024-01-30T04:12:50;12.10;;;7.43;;
45328;SDS011;72636;48.160;11.428;2024-01-30T04:15:19;12.10;;;7.10;;
45328;SDS011;72636;48.160;11.428;2024-01-30T04:17:45;12.23;;;7.15;;
45328;SDS011;72636;48.160;11.428;2024-01-30T04:20:14;10.65;;;6.93;;
45328;SDS011;72636;48.160;11.428;2024-01-30T04:22:44;10.97;;;6.70;;
45328;SDS011;72636;48.160;11.428;2024-01-30T04:25:10;12.93;;;6.63;;
45328;SDS011;72636;48.160;11.428;2024-01-30T04:27:36;15.27;;;7.60;;
45328;SDS011;72636;48.160;11.428;2024-01-30T04:30:02;13.45;;;7.45;;
45328;SDS011;72636;48.160;11.428;2024-01-30T04:32:28;11.07;;;6.75;;
45328;SDS011;72636;48.160;11.428;2024-01-30T04:34:54;14.23;;;7.73;;
45328;SDS011;72636;48.160;11.428;2024-01-30T04:37:20;12.82;;;7.68;;
45328;SDS011;72636;48.160;11.428;2024-01-30T04:39:45;11.38;;;6.97;;
45328;SDS011;72636;48.160;11.428;2024-01-30T04:42:11;10.65;;;7.18;;
45328;SDS011;72636;48.160;11.428;2024-01-30T04:44:37;13.95;;;6.82;;
45328;SDS011;72636;48.160;11.428;2024-01-30T04:47:02;11.55;;;7.10;;
45328;SDS011;72636;48.160;11.428;2024-01-30T04:49:30;12.83;;;7.37;;
45328;SDS011;72636;48.160;11.428;2024-01-30T04:51:55;8.68;;;5.93;;
45328;SDS011;72636;48.160;11.428;2024-01-30T04:54:21;9.38;;;6.25;;
45328;SDS011;72636;48.160;11.428;2024-01-30T04:56:47;9.85;;;6.60;;
45328;SDS011;72636;48.160;11.428;2024-01-30T04:59:12;12.38;;;6.55;;
45328;SDS011;72636;48.160;11.428;2024-01-30T05:01:38;12.18;;;6.85;;
45328;SDS011;72636;48.160;11.428;2024-01-30T05:04:04;13.98;;;7.28;;
45328;SDS011;72636;48.160;11.428;2024-01-30T05:06:32;10.13;;;6.67;;
45328;SDS011;72636;48.160;11.428;2024-01-30T05:08:58;10.90;;;7.35;;
45328;SDS011;72636;48.160;11.428;2024-01-30T05:11:24;15.77;;;7.55;;
45328;SDS011;72636;48.160;11.428;2024-01-30T05:13:49;12.45;;;7.28;;
45328;SDS011;72636;48.160;11.428;2024-01-30T05:16:15;12.70;;;7.35;;
45328;SDS011;72636;48.160;11.428;2024-01-30T05:18:41;13.80;;;7.43;;
45328;SDS011;72636;48.160;11.428;2024-01-30T05:21:06;11.20;;;6.78;;
45328;SDS011;72636;48.160;11.428;2024-01-30T05:23:32;12.02;;;7.30;;
45328;SDS011;72636;48.160;11.428;2024-01-30T05:25:58;11.02;;;6.85;;
45328;SDS011;72636;48.160;11.428;2024-01-30T05:28:25;10.03;;;7.10;;
45328;SDS011;72636;48.160;11.428;2024-01-30T05:30:51;10.63;;;6.95;;
45328;SDS011;72636;48.160;11.428;2024-01-30T05:33:17;11.93;;;7.05;;
45328;SDS011;72636;48.160;11.428;2024-01-30T05:35:43;11.02;;;6.90;;
45328;SDS011;72636;48.160;11.428;2024-01-30T05:38:08;11.20;;;6.80;;
45328;SDS011;72636;48.160;11.428;2024-01-30T05:40:34;13.38;;;7.13;;
45328;SDS011;72636;48.160;11.428;2024-01-30T05:43:00;9.52;;;6.93;;
45328;SDS011;72636;48.160;11.428;2024-01-30T05:45:27;14.87;;;6.83;;
45328;SDS011;72636;48.160;11.428;2024-01-30T05:47:53;10.88;;;6.97;;
45328;SDS011;72636;48.160;11.428;2024-01-30T05:50:20;15.40;;;7.50;;
45328;SDS011;72636;48.160;11.428;2024-01-30T05:52:48;11.20;;;6.97;;
45328;SDS011;72636;48.160;11.428;2024-01-30T05:55:14;12.35;;;7.28;;
45328;SDS011;72636;48.160;11.428;2024-01-30T05:57:40;12.88;;;7.15;;
45328;SDS011;72636;48.160;11.428;2024-01-30T06:00:06;11.93;;;6.72;;
45328;SDS011;72636;48.160;11.428;2024-01-30T06:02:33;10.07;;;6.53;;
45328;SDS011;72636;48.160;11.428;2024-01-30T06:04:59;15.23;;;7.32;;
45328;SDS011;72636;48.160;11.428;2024-01-30T06:07:25;14.90;;;7.97;;
45328;SDS011;72636;48.160;11.428;2024-01-30T06:09:50;16.88;;;7.97;;
45328;SDS011;72636;48.160;11.428;2024-01-30T06:12:16;16.75;;;8.38;;
45328;SDS011;72636;48.160;11.428;2024-01-30T06:14:43;19.13;;;9.10;;
45328;SDS011;72636;48.160;11.428;2024-01-30T06:17:09;17.17;;;8.73;;
45328;SDS011;72636;48.160;11.428;2024-01-30T06:19:36;23.70;;;9.53;;
45328;SDS011;72636;48.160;11.428;2024-01-30T06:22:03;22.03;;;9.43;;
45328;SDS011;72636;48.160;11.428;2024-01-30T06:24:29;20.45;;;9.45;;
45328;SDS011;72636;48.160;11.428;2024-01-30T06:26:55;23.27;;;11.45;;
45328;SDS011;72636;48.160;11.428;2024-01-30T06:29:21;26.42;;;12.68;;
45328;SDS011;72636;48.160;11.428;2024-01-30T06:31:50;27.60;;;12.87;;
45328;SDS011;72636;48.160;11.428;2024-01-30T06:34:16;30.13;;;11.57;;
45328;SDS011;72636;48.160;11.428;2024-01-30T06:36:42;22.52;;;10.02;;
45328;SDS011;72636;48.160;11.428;2024-01-30T06:39:07;25.55;;;10.18;;
45328;SDS011;72636;48.160;11.428;2024-01-30T06:41:33;23.52;;;10.18;;
45328;SDS011;72636;48.160;11.428;2024-01-30T06:43:59;21.63;;;9.73;;
45328;SDS011;72636;48.160;11.428;2024-01-30T06:46:26;16.67;;;9.60;;
45328;SDS011;72636;48.160;11.428;2024-01-30T06:48:52;20.30;;;9.82;;
45328;SDS011;72636;48.160;11.428;2024-01-30T06:51:18;25.05;;;10.40;;
45328;SDS011;72636;48.160;11.428;2024-01-30T06:53:44;20.50;;;9.07;;
45328;SDS011;72636;48.160;11.428;2024-01-30T06:56:09;22.95;;;8.90;;
45328;SDS011;72636;48.160;11.428;2024-01-30T06:58:35;23.02;;;10.50;;
45328;SDS011;72636;48.160;11.428;2024-01-30T07:01:02;22.38;;;9.52;;
45328;SDS011;72636;48.160;11.428;2024-01-30T07:03:29;22.37;;;9.73;;
45328;SDS011;72636;48.160;11.428;2024-01-30T07:05:55;23.63;;;9.65;;
45328;SDS011;72636;48.160;11.428;2024-01-30T07:08:20;22.02;;;9.43;;
45328;SDS011;72636;48.160;11.428;2024-01-30T07:10:47;22.03;;;9.43;;
45328;SDS011;72636;48.160;11.428;2024-01-30T07:13:13;23.63;;;9.25;;
45328;SDS011;72636;48.160;11.428;2024-01-30T07:15:41;25.87;;;10.13;;
45328;SDS011;72636;48.160;11.428;2024-01-30T07:18:07;22.88;;;9.73;;
45328;SDS011;72636;48.160;11.428;2024-01-30T07:20:35;22.43;;;10.23;;
45328;SDS011;72636;48.160;11.428;2024-01-30T07:23:02;20.43;;;9.00;;
45328;SDS011;72636;48.160;11.428;2024-01-30T07:25:28;19.08;;;9.50;;
45328;SDS011;72636;48.160;11.428;2024-01-30T07:27:55;21.98;;;9.43;;
45328;SDS011;72636;48.160;11.428;2024-01-30T07:32:48;19.00;;;8.45;;
45328;SDS011;72636;48.160;11.428;2024-01-30T07:35:14;18.27;;;8.85;;
45328;SDS011;72636;48.160;11.428;2024-01-30T07:37:40;20.67;;;8.10;;
45328;SDS011;72636;48.160;11.428;2024-01-30T07:40:06;18.98;;;8.55;;
45328;SDS011;72636;48.160;11.428;2024-01-30T07:42:33;16.27;;;7.77;;
45328;SDS011;72636;48.160;11.428;2024-01-30T07:44:59;13.25;;;7.78;;
45328;SDS011;72636;48.160;11.428;2024-01-30T07:47:25;17.03;;;7.93;;
45328;SDS011;72636;48.160;11.428;2024-01-30T07:49:51;15.65;;;8.38;;
45328;SDS011;72636;48.160;11.428;2024-01-30T07:52:17;14.43;;;8.63;;
45328;SDS011;72636;48.160;11.428;2024-01-30T07:54:44;15.93;;;8.03;;
45328;SDS011;72636;48.160;11.428;2024-01-30T07:57:10;14.17;;;8.57;;
45328;SDS011;72636;48.160;11.428;2024-01-30T07:59:35;14.67;;;8.80;;
45328;SDS011;72636;48.160;11.428;2024-01-30T08:02:01;14.82;;;8.48;;
45328;SDS011;72636;48.160;11.428;2024-01-30T08:04:27;18.75;;;8.48;;
45328;SDS011;72636;48.160;11.428;2024-01-30T08:06:52;18.52;;;9.38;;
45328;SDS011;72636;48.160;11.428;2024-01-30T08:09:19;18.02;;;9.23;;
45328;SDS011;72636;48.160;11.428;2024-01-30T08:11:45;15.33;;;9.33;;
45328;SDS011;72636;48.160;11.428;2024-01-30T08:14:10;15.07;;;8.60;;
45328;SDS011;72636;48.160;11.428;2024-01-30T08:16:38;15.70;;;9.02;;
45328;SDS011;72636;48.160;11.428;2024-01-30T08:19:04;13.40;;;8.77;;
45328;SDS011;72636;48.160;11.428;2024-01-30T08:21:30;20.48;;;9.48;;
45328;SDS011;72636;48.160;11.428;2024-01-30T08:24:04;13.90;;;8.68;;
45328;SDS011;72636;48.160;11.428;2024-01-30T08:26:31;17.75;;;9.18;;
45328;SDS011;72636;48.160;11.428;2024-01-30T08:31:23;15.05;;;9.20;;
45328;SDS011;72636;48.160;11.428;2024-01-30T08:33:48;21.80;;;8.77;;
45328;SDS011;72636;48.160;11.428;2024-01-30T08:36:16;16.35;;;9.02;;
45328;SDS011;72636;48.160;11.428;2024-01-30T08:38:43;17.50;;;9.02;;
45328;SDS011;72636;48.160;11.428;2024-01-30T08:41:09;14.07;;;8.70;;
45328;SDS011;72636;48.160;11.428;2024-01-30T08:43:36;24.35;;;9.18;;
45328;SDS011;72636;48.160;11.428;2024-01-30T08:46:02;19.50;;;8.35;;
45328;SDS011;72636;48.160;11.428;2024-01-30T08:48:28;19.25;;;8.18;;
45328;SDS011;72636;48.160;11.428;2024-01-30T08:50:54;20.75;;;8.35;;
45328;SDS011;72636;48.160;11.428;2024-01-30T08:53:21;18.95;;;8.90;;
45328;SDS011;72636;48.160;11.428;2024-01-30T08:55:47;24.50;;;9.70;;
45328;SDS011;72636;48.160;11.428;2024-01-30T08:58:12;18.40;;;9.53;;
45328;SDS011;72636;48.160;11.428;2024-01-30T09:00:38;22.65;;;11.90;;
45328;SDS011;72636;48.160;11.428;2024-01-30T09:03:04;31.57;;;14.03;;
45328;SDS011;72636;48.160;11.428;2024-01-30T09:05:30;30.52;;;15.73;;
45328;SDS011;72636;48.160;11.428;2024-01-30T09:07:55;36.63;;;17.43;;
45328;SDS011;72636;48.160;11.428;2024-01-30T09:10:21;28.80;;;16.03;;
45328;SDS011;72636;48.160;11.428;2024-01-30T09:12:47;39.00;;;17.15;;
45328;SDS011;72636;48.160;11.428;2024-01-30T09:15:14;29.77;;;14.98;;
45328;SDS011;72636;48.160;11.428;2024-01-30T09:17:40;26.23;;;11.52;;
45328;SDS011;72636;48.160;11.428;2024-01-30T09:20:06;18.10;;;10.30;;
45328;SDS011;72636;48.160;11.428;2024-01-30T09:22:32;23.30;;;10.52;;
45328;SDS011;72636;48.160;11.428;2024-01-30T09:24:58;17.75;;;7.65;;
45328;SDS011;72636;48.160;11.428;2024-01-30T09:27:23;15.98;;;6.55;;
45328;SDS011;72636;48.160;11.428;2024-01-30T09:29:49;15.80;;;6.70;;
45328;SDS011;72636;48.160;11.428;2024-01-30T09:32:15;22.23;;;6.20;;
45328;SDS011;72636;48.160;11.428;2024-01-30T09:34:40;11.38;;;4.55;;
45328;SDS011;72636;48.160;11.428;2024-01-30T09:37:07;9.87;;;4.67;;
45328;SDS011;72636;48.160;11.428;2024-01-30T09:39:33;10.00;;;4.35;;
45328;SDS011;72636;48.160;11.428;2024-01-30T09:42:05;10.67;;;4.30;;
45328;SDS011;72636;48.160;11.428;2024-01-30T09:44:44;7.97;;;3.38;;
45328;SDS011;72636;48.160;11.428;2024-01-30T09:47:12;12.80;;;4.45;;
45328;SDS011;72636;48.160;11.428;2024-01-30T09:49:41;15.05;;;4.90;;
45328;SDS011;72636;48.160;11.428;2024-01-30T09:52:08;13.40;;;4.00;;
45328;SDS011;72636;48.160;11.428;2024-01-30T09:54:34;5.88;;;3.45;;
45328;SDS011;72636;48.160;11.428;2024-01-30T09:57:01;7.07;;;3.03;;
45328;SDS011;72636;48.160;11.428;2024-01-30T09:59:27;5.80;;;3.53;;
45328;SDS011;72636;48.160;11.428;2024-01-30T10:01:52;9.77;;;5.13;;
45328;SDS011;72636;48.160;11.428;2024-01-30T10:04:18;10.73;;;5.77;;
45328;SDS011;72636;48.160;11.428;2024-01-30T10:06:44;11.73;;;5.83;;
45328;SDS011;72636;48.160;11.428;2024-01-30T10:09:09;10.13;;;6.75;;
45328;SDS011;72636;48.160;11.428;2024-01-30T10:11:36;9.63;;;5.55;;
45328;SDS011;72636;48.160;11.428;2024-01-30T10:14:02;8.68;;;5.60;;
45328;SDS011;72636;48.160;11.428;2024-01-30T10:16:28;13.75;;;7.05;;
45328;SDS011;72636;48.160;11.428;2024-01-30T10:18:54;16.38;;;7.10;;
45328;SDS011;72636;48.160;11.428;2024-01-30T10:21:20;13.32;;;7.00;;
45328;SDS011;72636;48.160;11.428;2024-01-30T10:23:46;19.15;;;6.45;;
45328;SDS011;72636;48.160;11.428;2024-01-30T10:26:13;14.60;;;6.13;;
45328;SDS011;72636;48.160;11.428;2024-01-30T10:28:41;15.35;;;6.22;;
45328;SDS011;72636;48.160;11.428;2024-01-30T10:31:08;20.20;;;6.37;;
45328;SDS011;72636;48.160;11.428;2024-01-30T10:33:34;13.48;;;6.60;;
45328;SDS011;72636;48.160;11.428;2024-01-30T10:36:01;12.25;;;5.82;;
45328;SDS011;72636;48.160;11.428;2024-01-30T10:38:28;17.70;;;6.05;;
45328;SDS011;72636;48.160;11.428;2024-01-30T10:40:59;10.52;;;5.53;;
45328;SDS011;72636;48.160;11.428;2024-01-30T10:43:30;12.05;;;5.65;;
45328;SDS011;72636;48.160;11.428;2024-01-30T10:46:21;11.73;;;5.07;;
45328;SDS011;72636;48.160;11.428;2024-01-30T10:48:56;9.27;;;4.38;;
45328;SDS011;72636;48.160;11.428;2024-01-30T10:51:27;11.35;;;3.75;;
45328;SDS011;72636;48.160;11.428;2024-01-30T10:53:53;11.15;;;3.80;;
45328;SDS011;72636;48.160;11.428;2024-01-30T10:56:24;7.45;;;3.10;;
45328;SDS011;72636;48.160;11.428;2024-01-30T10:58:53;5.82;;;2.63;;
45328;SDS011;72636;48.160;11.428;2024-01-30T11:01:22;11.20;;;3.15;;
45328;SDS011;72636;48.160;11.428;2024-01-30T11:03:53;6.07;;;2.17;;
45328;SDS011;72636;48.160;11.428;2024-01-30T11:06:22;4.68;;;1.90;;
45328;SDS011;72636;48.160;11.428;2024-01-30T11:09:03;1.95;;;1.75;;
45328;SDS011;72636;48.160;11.428;2024-01-30T11:11:47;7.55;;;2.40;;
45328;SDS011;72636;48.160;11.428;2024-01-30T11:14:26;3.95;;;1.85;;
45328;SDS011;72636;48.160;11.428;2024-01-30T11:16:56;2.38;;;1.80;;
45328;SDS011;72636;48.160;11.428;2024-01-30T11:19:23;5.78;;;2.17;;
45328;SDS011;72636;48.160;11.428;2024-01-30T11:21:55;10.13;;;2.28;;
45328;SDS011;72636;48.160;11.428;2024-01-30T11:24:23;10.02;;;2.70;;
45328;SDS011;72636;48.160;11.428;2024-01-30T11:26:58;3.17;;;2.28;;
45328;SDS011;72636;48.160;11.428;2024-01-30T11:29:27;5.00;;;1.77;;
45328;SDS011;72636;48.160;11.428;2024-01-30T11:31:54;4.18;;;2.33;;
45328;SDS011;72636;48.160;11.428;2024-01-30T11:34:20;5.38;;;2.30;;
45328;SDS011;72636;48.160;11.428;2024-01-30T11:36:51;8.60;;;2.58;;
45328;SDS011;72636;48.160;11.428;2024-01-30T11:39:20;6.32;;;2.90;;
45328;SDS011;72636;48.160;11.428;2024-01-30T11:41:47;6.93;;;2.60;;
45328;SDS011;72636;48.160;11.428;2024-01-30T11:44:17;5.35;;;3.10;;
45328;SDS011;72636;48.160;11.428;2024-01-30T11:46:43;4.63;;;2.60;;
45328;SDS011;72636;48.160;11.428;2024-01-30T11:49:08;4.17;;;2.37;;
45328;SDS011;72636;48.160;11.428;2024-01-30T11:51:36;4.47;;;2.50;;
45328;SDS011;72636;48.160;11.428;2024-01-30T11:54:02;4.33;;;2.80;;
45328;SDS011;72636;48.160;11.428;2024-01-30T11:56:28;5.22;;;2.47;;
45328;SDS011;72636;48.160;11.428;2024-01-30T11:58:55;6.00;;;2.42;;
45328;SDS011;72636;48.160;11.428;2024-01-30T12:01:20;5.10;;;2.43;;
45328;SDS011;72636;48.160;11.428;2024-01-30T12:03:49;11.90;;;2.60;;
45328;SDS011;72636;48.160;11.428;2024-01-30T12:06:15;12.25;;;3.00;;
45328;SDS011;72636;48.160;11.428;2024-01-30T12:08:41;8.88;;;2.95;;
45328;SDS011;72636;48.160;11.428;2024-01-30T12:11:07;9.55;;;2.80;;
45328;SDS011;72636;48.160;11.428;2024-01-30T12:13:33;6.45;;;2.55;;
45328;SDS011;72636;48.160;11.428;2024-01-30T12:16:00;6.30;;;2.33;;
45328;SDS011;72636;48.160;11.428;2024-01-30T12:18:26;8.70;;;2.92;;
45328;SDS011;72636;48.160;11.428;2024-01-30T12:21:01;8.07;;;2.37;;
45328;SDS011;72636;48.160;11.428;2024-01-30T12:23:28;5.20;;;2.10;;
45328;SDS011;72636;48.160;11.428;2024-01-30T12:25:55;4.63;;;2.05;;
45328;SDS011;72636;48.160;11.428;2024-01-30T12:28:22;4.60;;;1.75;;
45328;SDS011;72636;48.160;11.428;2024-01-30T12:30:47;4.13;;;1.80;;
45328;SDS011;72636;48.160;11.428;2024-01-30T12:33:16;2.73;;;1.67;;
45328;SDS011;72636;48.160;11.428;2024-01-30T12:35:46;3.38;;;1.50;;
45328;SDS011;72636;48.160;11.428;2024-01-30T12:38:16;4.00;;;1.80;;
45328;SDS011;72636;48.160;11.428;2024-01-30T12:40:44;6.85;;;2.00;;
45328;SDS011;72636;48.160;11.428;2024-01-30T12:43:10;6.60;;;2.40;;
45328;SDS011;72636;48.160;11.428;2024-01-30T12:45:36;3.63;;;2.00;;
45328;SDS011;72636;48.160;11.428;2024-01-30T12:48:02;6.57;;;2.17;;
45328;SDS011;72636;48.160;11.428;2024-01-30T12:50:28;8.07;;;2.10;;
45328;SDS011;72636;48.160;11.428;2024-01-30T12:52:53;2.55;;;1.83;;
45328;SDS011;72636;48.160;11.428;2024-01-30T12:55:19;3.85;;;2.33;;
45328;SDS011;72636;48.160;11.428;2024-01-30T12:57:45;3.43;;;2.03;;
45328;SDS011;72636;48.160;11.428;2024-01-30T13:00:11;3.20;;;1.88;;
45328;SDS011;72636;48.160;11.428;2024-01-30T13:02:37;10.20;;;2.17;;
45328;SDS011;72636;48.160;11.428;2024-01-30T13:05:03;6.25;;;1.83;;
45328;SDS011;72636;48.160;11.428;2024-01-30T13:07:29;5.85;;;1.67;;
45328;SDS011;72636;48.160;11.428;2024-01-30T13:09:56;4.38;;;2.00;;
45328;SDS011;72636;48.160;11.428;2024-01-30T13:12:29;8.18;;;2.00;;
45328;SDS011;72636;48.160;11.428;2024-01-30T13:14:58;4.18;;;1.98;;
45328;SDS011;72636;48.160;11.428;2024-01-30T13:17:26;10.32;;;2.28;;
45328;SDS011;72636;48.160;11.428;2024-01-30T13:19:52;5.53;;;2.03;;
45328;SDS011;72636;48.160;11.428;2024-01-30T13:22:19;2.28;;;1.40;;
45328;SDS011;72636;48.160;11.428;2024-01-30T13:24:46;9.13;;;1.73;;
45328;SDS011;72636;48.160;11.428;2024-01-30T13:27:13;3.90;;;1.63;;
45328;SDS011;72636;48.160;11.428;2024-01-30T13:29:39;8.48;;;1.67;;
45328;SDS011;72636;48.160;11.428;2024-01-30T13:32:04;9.07;;;1.73;;
45328;SDS011;72636;48.160;11.428;2024-01-30T13:34:30;11.63;;;2.05;;
45328;SDS011;72636;48.160;11.428;2024-01-30T13:36:56;12.27;;;2.40;;
45328;SDS011;72636;48.160;11.428;2024-01-30T13:39:22;14.90;;;2.50;;
45328;SDS011;72636;48.160;11.428;2024-01-30T13:41:48;8.05;;;1.85;;
45328;SDS011;72636;48.160;11.428;2024-01-30T13:44:14;8.45;;;2.10;;
45328;SDS011;72636;48.160;11.428;2024-01-30T13:46:43;12.63;;;2.25;;
45328;SDS011;72636;48.160;11.428;2024-01-30T13:49:08;4.72;;;1.88;;
45328;SDS011;72636;48.160;11.428;2024-01-30T13:51:34;5.63;;;1.95;;
45328;SDS011;72636;48.160;11.428;2024-01-30T13:54:00;7.38;;;2.13;;
45328;SDS011;72636;48.160;11.428;2024-01-30T13:56:25;9.32;;;2.30;;
45328;SDS011;72636;48.160;11.428;2024-01-30T13:58:52;7.28;;;2.40;;
45328;SDS011;72636;48.160;11.428;2024-01-30T14:01:18;7.00;;;2.77;;
45328;SDS011;72636;48.160;11.428;2024-01-30T14:03:44;12.30;;;2.30;;
45328;SDS011;72636;48.160;11.428;2024-01-30T14:06:10;9.68;;;2.60;;
45328;SDS011;72636;48.160;11.428;2024-01-30T14:08:37;13.45;;;2.50;;
45328;SDS011;72636;48.160;11.428;2024-01-30T14:11:02;16.73;;;2.97;;
45328;SDS011;72636;48.160;11.428;2024-01-30T14:13:28;18.35;;;3.30;;
45328;SDS011;72636;48.160;11.428;2024-01-30T14:15:55;36.03;;;4.40;;
45328;SDS011;72636;48.160;11.428;2024-01-30T14:18:21;18.50;;;3.67;;
45328;SDS011;72636;48.160;11.428;2024-01-30T14:20:47;22.23;;;3.65;;
45328;SDS011;72636;48.160;11.428;2024-01-30T14:23:13;23.10;;;4.35;;
45328;SDS011;72636;48.160;11.428;2024-01-30T14:25:39;15.68;;;3.42;;
45328;SDS011;72636;48.160;11.428;2024-01-30T14:28:04;20.37;;;3.33;;
45328;SDS011;72636;48.160;11.428;2024-01-30T14:30:30;14.98;;;3.90;;